createdAt,value
2018-04-28T00:00:55.284Z,13.01
2018-04-28T00:01:55.247Z,13.05
2018-04-28T00:02:55.204Z,13.00
2018-04-28T00:03:55.193Z,13.07
2018-04-28T00:04:55.127Z,13.03
2018-04-28T00:05:55.127Z,12.97
2018-04-28T00:06:55.051Z,13.00
2018-04-28T00:07:55.092Z,12.90
2018-04-28T00:08:54.968Z,12.86
2018-04-28T00:09:54.949Z,13.00
2018-04-28T00:10:54.917Z,12.90
2018-04-28T00:11:54.853Z,12.85
2018-04-28T00:12:54.795Z,13.00
2018-04-28T00:13:54.776Z,12.92
2018-04-28T00:14:54.796Z,12.85
2018-04-28T00:15:54.681Z,12.89
2018-04-28T00:16:54.650Z,12.85
2018-04-28T00:17:54.636Z,12.86
2018-04-28T00:18:54.575Z,12.89
2018-04-28T00:19:54.553Z,12.89
2018-04-28T00:20:54.497Z,12.87
2018-04-28T00:21:54.463Z,12.90
2018-04-28T00:22:54.436Z,12.89
2018-04-28T00:23:54.381Z,12.96
2018-04-28T00:24:54.355Z,12.93
2018-04-28T00:25:54.339Z,12.97
2018-04-28T00:26:54.262Z,12.93
2018-04-28T00:27:54.225Z,13.01
2018-04-28T00:28:54.187Z,13.00
2018-04-28T00:29:54.211Z,12.87
2018-04-28T00:30:54.092Z,13.01
2018-04-28T00:31:54.049Z,13.01
2018-04-28T00:32:54.022Z,13.03
2018-04-28T00:33:54.000Z,13.11
2018-04-28T00:34:53.961Z,13.08
2018-04-28T00:35:53.921Z,13.23
2018-04-28T00:36:53.887Z,13.14
2018-04-28T00:37:53.832Z,13.20
2018-04-28T00:38:53.780Z,13.20
2018-04-28T00:39:53.783Z,13.19
2018-04-28T00:40:53.749Z,13.15
2018-04-28T00:41:53.686Z,13.15
2018-04-28T00:42:53.636Z,13.17
2018-04-28T00:43:53.602Z,13.19
2018-04-28T00:44:53.537Z,13.26
2018-04-28T00:45:53.503Z,13.38
2018-04-28T00:46:53.512Z,13.42
2018-04-28T00:47:53.450Z,13.49
2018-04-28T00:48:53.381Z,13.48
2018-04-28T00:49:53.354Z,13.46
2018-04-28T00:50:53.328Z,13.54
2018-04-28T00:51:53.296Z,13.49
2018-04-28T00:52:53.228Z,13.52
2018-04-28T00:53:53.192Z,13.44
2018-04-28T00:54:53.157Z,13.41
2018-04-28T00:55:53.137Z,13.46
2018-04-28T00:56:53.150Z,13.42
2018-04-28T00:57:53.036Z,13.49
2018-04-28T00:58:52.986Z,13.51
2018-04-28T00:59:52.982Z,13.48
2018-04-28T01:00:52.913Z,13.51
2018-04-28T01:01:52.907Z,13.42
2018-04-28T01:02:52.900Z,13.39
2018-04-28T01:03:52.823Z,13.41
2018-04-28T01:04:52.756Z,13.41
2018-04-28T01:05:52.767Z,13.33
2018-04-28T01:06:52.677Z,13.29
2018-04-28T01:07:52.689Z,13.22
2018-04-28T01:08:52.593Z,13.12
2018-04-28T01:09:52.560Z,13.11
2018-04-28T01:10:52.522Z,13.04
2018-04-28T01:11:52.501Z,13.01
2018-04-28T01:12:52.463Z,13.20
2018-04-28T01:13:52.410Z,13.15
2018-04-28T01:14:52.362Z,13.15
2018-04-28T01:15:52.331Z,13.17
2018-04-28T01:16:52.302Z,13.14
2018-04-28T01:17:52.302Z,13.23
2018-04-28T01:18:52.226Z,13.38
2018-04-28T01:19:52.192Z,13.29
2018-04-28T01:20:52.154Z,13.36
2018-04-28T01:21:52.109Z,13.33
2018-04-28T01:22:52.050Z,13.36
2018-04-28T01:23:52.076Z,13.29
2018-04-28T01:24:51.996Z,13.29
2018-04-28T01:25:51.950Z,13.38
2018-04-28T01:26:51.929Z,13.36
2018-04-28T01:27:51.855Z,13.36
2018-04-28T01:28:51.850Z,13.44
2018-04-28T01:29:51.824Z,13.59
2018-04-28T01:30:51.755Z,13.62
2018-04-28T01:31:51.725Z,13.69
2018-04-28T01:32:51.650Z,13.66
2018-04-28T01:33:51.659Z,13.57
2018-04-28T01:34:51.615Z,13.60
2018-04-28T01:35:51.549Z,13.59
2018-04-28T01:36:51.541Z,13.59
2018-04-28T01:37:51.470Z,13.55
2018-04-28T01:38:51.424Z,13.49
2018-04-28T01:39:51.422Z,13.45
2018-04-28T01:40:51.363Z,13.30
2018-04-28T01:41:51.319Z,13.33
2018-04-28T01:42:51.265Z,13.14
2018-04-28T01:43:51.267Z,13.23
2018-04-28T01:44:51.216Z,13.07
2018-04-28T01:45:51.196Z,13.04
2018-04-28T01:46:51.116Z,13.07
2018-04-28T01:47:51.083Z,12.92
2018-04-28T01:48:51.040Z,13.00
2018-04-28T01:49:50.979Z,12.96
2018-04-28T01:50:50.986Z,12.83
2018-04-28T01:51:50.937Z,12.86
2018-04-28T01:52:50.887Z,12.90
2018-04-28T01:53:50.851Z,12.82
2018-04-28T01:54:50.824Z,12.75
2018-04-28T01:55:50.759Z,12.72
2018-04-28T01:56:50.704Z,12.74
2018-04-28T01:57:50.685Z,12.79
2018-04-28T01:58:50.659Z,12.79
2018-04-28T01:59:50.602Z,12.85
2018-04-28T02:00:50.582Z,12.96
2018-04-28T02:01:50.534Z,12.95
2018-04-28T02:02:50.484Z,12.89
2018-04-28T02:03:50.448Z,12.90
2018-04-28T02:04:50.436Z,12.90
2018-04-28T02:05:50.394Z,12.90
2018-04-28T02:06:50.317Z,13.01
2018-04-28T02:07:50.284Z,13.10
2018-04-28T02:08:50.261Z,13.05
2018-04-28T02:09:50.257Z,13.07
2018-04-28T02:10:50.202Z,13.03
2018-04-28T02:11:50.131Z,13.01
2018-04-28T02:12:50.115Z,13.05
2018-04-28T02:13:50.056Z,13.07
2018-04-28T02:14:50.016Z,13.15
2018-04-28T02:15:50.007Z,13.14
2018-04-28T02:16:49.928Z,13.26
2018-04-28T02:17:49.893Z,13.26
2018-04-28T02:18:49.849Z,13.28
2018-04-28T02:19:49.803Z,13.19
2018-04-28T02:20:49.804Z,13.17
2018-04-28T02:21:49.753Z,13.11
2018-04-28T02:22:49.724Z,13.14
2018-04-28T02:23:49.653Z,13.07
2018-04-28T02:24:49.627Z,13.04
2018-04-28T02:25:49.590Z,13.00
2018-04-28T02:26:49.564Z,13.04
2018-04-28T02:27:49.500Z,12.92
2018-04-28T02:28:49.445Z,13.03
2018-04-28T02:29:49.420Z,12.96
2018-04-28T02:30:49.397Z,13.00
2018-04-28T02:31:49.379Z,12.92
2018-04-28T02:32:49.298Z,12.95
2018-04-28T02:33:49.272Z,12.87
2018-04-28T02:34:49.241Z,12.89
2018-04-28T02:35:49.192Z,12.68
2018-04-28T02:36:49.122Z,12.70
2018-04-28T02:37:49.133Z,12.54
2018-04-28T02:38:49.052Z,12.49
2018-04-28T02:39:49.037Z,12.42
2018-04-28T02:40:49.093Z,12.42
2018-04-28T02:41:48.974Z,12.32
2018-04-28T02:42:48.975Z,12.28
2018-04-28T02:43:48.882Z,12.28
2018-04-28T02:44:48.853Z,12.21
2018-04-28T02:45:48.780Z,12.16
2018-04-28T02:46:48.755Z,12.14
2018-04-28T02:47:48.734Z,12.13
2018-04-28T02:48:48.670Z,12.05
2018-04-28T02:49:48.628Z,12.02
2018-04-28T02:50:48.602Z,11.96
2018-04-28T02:51:48.555Z,11.91
2018-04-28T02:52:48.541Z,11.94
2018-04-28T02:53:48.469Z,11.96
2018-04-28T02:54:48.445Z,11.82
2018-04-28T02:55:48.376Z,11.82
2018-04-28T02:56:48.353Z,11.75
2018-04-28T02:57:48.337Z,11.73
2018-04-28T02:58:48.270Z,11.70
2018-04-28T02:59:48.231Z,11.69
2018-04-28T03:00:48.205Z,11.65
2018-04-28T03:01:48.186Z,11.57
2018-04-28T03:02:48.120Z,11.52
2018-04-28T03:03:48.118Z,11.62
2018-04-28T03:04:48.020Z,11.65
2018-04-28T03:05:48.004Z,11.62
2018-04-28T03:06:47.960Z,11.65
2018-04-28T03:07:47.912Z,11.60
2018-04-28T03:08:47.867Z,11.58
2018-04-28T03:09:47.851Z,11.61
2018-04-28T03:10:47.807Z,11.57
2018-04-28T03:11:47.762Z,11.46
2018-04-28T03:12:47.768Z,11.51
2018-04-28T03:13:47.675Z,11.46
2018-04-28T03:14:47.689Z,11.36
2018-04-28T03:15:47.606Z,11.33
2018-04-28T03:16:47.559Z,11.24
2018-04-28T03:17:47.513Z,11.21
2018-04-28T03:18:47.515Z,11.28
2018-04-28T03:19:47.440Z,11.28
2018-04-28T03:20:47.446Z,11.19
2018-04-28T03:21:47.382Z,11.21
2018-04-28T03:22:47.320Z,11.24
2018-04-28T03:23:47.306Z,11.19
2018-04-28T03:24:47.253Z,11.18
2018-04-28T03:25:47.201Z,11.10
2018-04-28T03:26:47.157Z,11.17
2018-04-28T03:27:47.125Z,11.21
2018-04-28T03:28:47.072Z,11.24
2018-04-28T03:29:47.077Z,11.37
2018-04-28T03:30:47.003Z,11.58
2018-04-28T03:31:46.976Z,11.62
2018-04-28T03:32:46.917Z,11.72
2018-04-28T03:33:46.890Z,11.79
2018-04-28T03:34:46.864Z,11.90
2018-04-28T03:35:46.795Z,11.96
2018-04-28T03:36:46.791Z,11.95
2018-04-28T03:37:46.703Z,11.80
2018-04-28T03:38:46.672Z,11.96
2018-04-28T03:39:46.700Z,11.94
2018-04-28T03:40:46.615Z,11.95
2018-04-28T03:41:46.565Z,11.83
2018-04-28T03:42:46.530Z,11.95
2018-04-28T03:43:46.495Z,12.02
2018-04-28T03:44:46.444Z,11.99
2018-04-28T03:45:46.474Z,11.99
2018-04-28T03:46:46.374Z,11.98
2018-04-28T03:47:46.328Z,11.98
2018-04-28T03:48:46.276Z,11.94
2018-04-28T03:49:46.254Z,12.05
2018-04-28T03:50:46.242Z,12.02
2018-04-28T03:51:46.187Z,12.04
2018-04-28T03:52:46.117Z,12.21
2018-04-28T03:53:46.094Z,12.28
2018-04-28T03:54:46.041Z,12.32
2018-04-28T03:55:46.016Z,12.42
2018-04-28T03:56:45.966Z,12.41
2018-04-28T03:57:45.938Z,12.41
2018-04-28T03:58:45.901Z,12.50
2018-04-28T03:59:45.845Z,12.54
2018-04-28T04:00:45.823Z,12.52
2018-04-28T04:01:45.756Z,12.71
2018-04-28T04:02:45.728Z,12.54
2018-04-28T04:03:45.718Z,12.56
2018-04-28T04:04:45.726Z,12.56
2018-04-28T04:05:45.631Z,12.57
2018-04-28T04:06:45.558Z,12.60
2018-04-28T04:07:45.584Z,12.60
2018-04-28T04:08:45.498Z,12.54
2018-04-28T04:09:45.448Z,12.56
2018-04-28T04:10:45.475Z,12.54
2018-04-28T04:11:45.356Z,12.54
2018-04-28T04:12:45.319Z,12.52
2018-04-28T04:13:45.289Z,12.57
2018-04-28T04:14:45.243Z,12.52
2018-04-28T04:15:45.218Z,12.56
2018-04-28T04:16:45.249Z,12.50
2018-04-28T04:17:45.149Z,12.57
2018-04-28T04:18:45.094Z,12.53
2018-04-28T04:19:45.035Z,12.50
2018-04-28T04:20:45.048Z,12.57
2018-04-28T04:21:44.969Z,12.53
2018-04-28T04:22:44.943Z,12.70
2018-04-28T04:23:44.890Z,12.74
2018-04-28T04:24:44.859Z,12.83
2018-04-28T04:25:44.846Z,12.82
2018-04-28T04:26:44.784Z,12.97
2018-04-28T04:27:44.714Z,13.03
2018-04-28T04:28:44.729Z,13.04
2018-04-28T04:29:44.636Z,13.00
2018-04-28T04:30:44.660Z,13.01
2018-04-28T04:31:44.578Z,13.08
2018-04-28T04:32:44.538Z,13.01
2018-04-28T04:33:44.485Z,13.04
2018-04-28T04:34:44.512Z,13.00
2018-04-28T04:35:44.460Z,13.03
2018-04-28T04:36:44.380Z,12.83
2018-04-28T04:37:44.355Z,12.96
2018-04-28T04:38:44.294Z,12.95
2018-04-28T04:39:44.245Z,13.01
2018-04-28T04:40:44.211Z,13.07
2018-04-28T04:41:44.223Z,13.07
2018-04-28T04:42:44.167Z,13.25
2018-04-28T04:43:44.097Z,13.30
2018-04-28T04:44:44.062Z,13.46
2018-04-28T04:45:44.008Z,13.38
2018-04-28T04:46:44.006Z,13.48
2018-04-28T04:47:43.967Z,13.51
2018-04-28T04:48:43.939Z,13.57
2018-04-28T04:49:43.867Z,13.57
2018-04-28T04:50:43.852Z,13.51
2018-04-28T04:51:43.796Z,13.52
2018-04-28T04:52:43.754Z,13.57
2018-04-28T04:53:43.740Z,13.57
2018-04-28T04:54:43.672Z,13.54
2018-04-28T04:55:43.631Z,13.59
2018-04-28T04:56:43.602Z,13.69
2018-04-28T04:57:43.572Z,13.64
2018-04-28T04:58:43.549Z,13.64
2018-04-28T04:59:43.486Z,13.69
2018-04-28T05:00:43.439Z,13.69
2018-04-28T05:01:43.422Z,13.71
2018-04-28T05:02:43.386Z,13.67
2018-04-28T05:03:43.316Z,13.66
2018-04-28T05:04:43.305Z,13.81
2018-04-28T05:05:43.238Z,13.84
2018-04-28T05:06:43.213Z,13.88
2018-04-28T05:07:43.188Z,14.03
2018-04-28T05:08:43.146Z,14.00
2018-04-28T05:09:43.071Z,14.10
2018-04-28T05:10:43.064Z,14.22
2018-04-28T05:11:43.017Z,14.29
2018-04-28T05:12:42.994Z,14.52
2018-04-28T05:13:42.926Z,15.19
2018-04-28T05:14:42.950Z,15.92
2018-04-28T05:15:42.842Z,16.75
2018-04-28T05:16:42.797Z,16.67
2018-04-28T05:17:42.751Z,16.23
2018-04-28T05:18:42.755Z,15.72
2018-04-28T05:19:42.684Z,15.36
2018-04-28T05:20:42.691Z,15.31
2018-04-28T05:21:42.602Z,15.13
2018-04-28T05:22:42.597Z,15.03
2018-04-28T05:23:42.526Z,14.98
2018-04-28T05:24:42.494Z,14.91
2018-04-28T05:25:42.460Z,15.09
2018-04-28T05:26:42.431Z,14.98
2018-04-28T05:27:42.410Z,14.91
2018-04-28T05:28:42.425Z,14.91
2018-04-28T05:29:42.299Z,14.89
2018-04-28T05:30:42.266Z,14.84
2018-04-28T05:31:42.230Z,14.81
2018-04-28T05:32:42.184Z,14.95
2018-04-28T05:33:42.168Z,15.01
2018-04-28T05:34:42.112Z,14.96
2018-04-28T05:35:42.071Z,14.84
2018-04-28T05:36:42.033Z,14.77
2018-04-28T05:37:41.989Z,14.75
2018-04-28T05:38:41.983Z,14.72
2018-04-28T05:39:41.926Z,14.75
2018-04-28T05:40:41.887Z,14.61
2018-04-28T05:41:41.863Z,14.60
2018-04-28T05:42:41.832Z,14.54
2018-04-28T05:43:41.800Z,14.64
2018-04-28T05:44:41.780Z,14.55
2018-04-28T05:45:41.688Z,14.51
2018-04-28T05:46:41.657Z,14.61
2018-04-28T05:47:41.620Z,14.62
2018-04-28T05:48:41.609Z,14.62
2018-04-28T05:49:41.536Z,14.69
2018-04-28T05:50:41.528Z,14.70
2018-04-28T05:51:41.464Z,14.69
2018-04-28T05:52:41.438Z,14.69
2018-04-28T05:53:41.395Z,14.75
2018-04-28T05:54:41.368Z,14.81
2018-04-28T05:55:41.340Z,14.84
2018-04-28T05:56:41.277Z,14.94
2018-04-28T05:57:41.250Z,14.89
2018-04-28T05:58:41.213Z,14.86
2018-04-28T05:59:41.177Z,14.80
2018-04-28T06:00:41.164Z,14.72
2018-04-28T06:01:41.092Z,14.72
2018-04-28T06:02:41.088Z,14.70
2018-04-28T06:03:41.032Z,14.75
2018-04-28T06:04:40.984Z,14.81
2018-04-28T06:05:40.936Z,14.77
2018-04-28T06:06:40.910Z,14.62
2018-04-28T06:07:40.860Z,14.65
2018-04-28T06:08:40.822Z,14.61
2018-04-28T06:09:40.803Z,14.65
2018-04-28T06:10:40.762Z,14.70
2018-04-28T06:11:40.739Z,14.77
2018-04-28T06:12:40.845Z,14.86
2018-04-28T06:13:40.641Z,14.92
2018-04-28T06:14:40.592Z,15.06
2018-04-28T06:15:40.551Z,15.13
2018-04-28T06:16:40.544Z,15.09
2018-04-28T06:17:40.528Z,15.03
2018-04-28T06:18:40.449Z,15.13
2018-04-28T06:19:40.409Z,15.10
2018-04-28T06:20:40.369Z,14.89
2018-04-28T06:21:40.344Z,14.98
2018-04-28T06:22:40.339Z,15.21
2018-04-28T06:23:40.258Z,15.28
2018-04-28T06:24:40.223Z,15.41
2018-04-28T06:25:40.219Z,15.50
2018-04-28T06:26:40.168Z,15.49
2018-04-28T06:27:40.139Z,15.44
2018-04-28T06:28:40.065Z,15.47
2018-04-28T06:29:40.013Z,15.53
2018-04-28T06:30:40.088Z,15.46
2018-04-28T06:31:39.985Z,15.56
2018-04-28T06:32:39.910Z,15.59
2018-04-28T06:33:39.926Z,15.62
2018-04-28T06:34:39.839Z,15.49
2018-04-28T06:35:39.813Z,15.59
2018-04-28T06:36:39.802Z,15.64
2018-04-28T06:37:39.733Z,15.47
2018-04-28T06:38:39.720Z,15.32
2018-04-28T06:39:39.666Z,15.38
2018-04-28T06:40:39.653Z,15.27
2018-04-28T06:41:39.579Z,15.41
2018-04-28T06:42:40.135Z,15.35
2018-04-28T06:43:39.505Z,15.36
2018-04-28T06:44:39.473Z,15.46
2018-04-28T06:45:39.466Z,15.39
2018-04-28T06:46:39.456Z,15.51
2018-04-28T06:47:39.367Z,15.32
2018-04-28T06:48:39.321Z,15.34
2018-04-28T06:49:39.288Z,15.29
2018-04-28T06:50:39.270Z,15.47
2018-04-28T06:51:39.230Z,15.49
2018-04-28T06:52:39.188Z,15.41
2018-04-28T06:53:39.126Z,15.43
2018-04-28T06:54:39.100Z,15.51
2018-04-28T06:55:39.056Z,15.57
2018-04-28T06:56:39.042Z,15.60
2018-04-28T06:57:38.981Z,15.71
2018-04-28T06:58:39.035Z,15.74
2018-04-28T06:59:38.944Z,15.68
2018-04-28T07:00:38.874Z,15.65
2018-04-28T07:01:38.842Z,15.78
2018-04-28T07:02:38.812Z,15.72
2018-04-28T07:03:38.754Z,15.76
2018-04-28T07:04:38.755Z,15.60
2018-04-28T07:05:38.692Z,15.31
2018-04-28T07:06:38.649Z,15.38
2018-04-28T07:07:38.638Z,15.07
2018-04-28T07:08:38.560Z,15.13
2018-04-28T07:09:38.531Z,15.20
2018-04-28T07:10:38.495Z,15.07
2018-04-28T07:11:38.457Z,15.32
2018-04-28T07:12:38.431Z,15.49
2018-04-28T07:13:38.423Z,15.44
2018-04-28T07:14:38.345Z,15.65
2018-04-28T07:15:38.326Z,15.64
2018-04-28T07:16:38.261Z,15.82
2018-04-28T07:17:38.245Z,15.72
2018-04-28T07:18:38.219Z,15.67
2018-04-28T07:19:38.162Z,15.90
2018-04-28T07:20:38.122Z,15.97
2018-04-28T07:21:38.090Z,15.92
2018-04-28T07:22:38.041Z,15.94
2018-04-28T07:23:38.035Z,15.93
2018-04-28T07:24:37.969Z,15.60
2018-04-28T07:25:37.935Z,15.41
2018-04-28T07:26:37.909Z,15.41
2018-04-28T07:27:37.866Z,15.64
2018-04-28T07:28:37.852Z,15.59
2018-04-28T07:29:37.804Z,15.64
2018-04-28T07:30:37.748Z,15.67
2018-04-28T07:31:37.736Z,15.60
2018-04-28T07:32:37.677Z,15.62
2018-04-28T07:33:37.685Z,15.64
2018-04-28T07:34:37.629Z,15.60
2018-04-28T07:35:37.573Z,15.49
2018-04-28T07:36:37.523Z,15.49
2018-04-28T07:37:37.502Z,15.41
2018-04-28T07:38:37.476Z,15.35
2018-04-28T07:39:37.437Z,15.43
2018-04-28T07:40:37.380Z,15.59
2018-04-28T07:41:37.341Z,15.76
2018-04-28T07:42:37.303Z,16.00
2018-04-28T07:43:37.304Z,15.94
2018-04-28T07:44:37.233Z,16.09
2018-04-28T07:45:37.196Z,16.23
2018-04-28T07:46:37.179Z,16.48
2018-04-28T07:47:37.139Z,16.85
2018-04-28T07:48:37.081Z,16.88
2018-04-28T07:49:37.069Z,16.98
2018-04-28T07:50:37.006Z,16.89
2018-04-28T07:51:36.977Z,17.06
2018-04-28T07:52:36.945Z,17.03
2018-04-28T07:53:36.905Z,17.01
2018-04-28T07:54:36.888Z,16.94
2018-04-28T07:55:36.830Z,17.16
2018-04-28T07:56:36.797Z,17.31
2018-04-28T07:57:36.759Z,17.34
2018-04-28T07:58:36.729Z,17.43
2018-04-28T07:59:36.713Z,17.62
2018-04-28T08:00:36.647Z,17.66
2018-04-28T08:01:36.624Z,17.78
2018-04-28T08:02:36.572Z,17.75
2018-04-28T08:03:36.546Z,17.84
2018-04-28T08:04:36.542Z,17.92
2018-04-28T08:05:36.474Z,17.66
2018-04-28T08:06:36.435Z,17.48
2018-04-28T08:07:36.398Z,17.52
2018-04-28T08:08:36.360Z,17.52
2018-04-28T08:09:36.333Z,17.55
2018-04-28T08:10:36.321Z,17.66
2018-04-28T08:11:36.278Z,17.40
2018-04-28T08:12:36.230Z,17.15
2018-04-28T08:13:36.197Z,17.33
2018-04-28T08:14:36.168Z,17.31
2018-04-28T08:15:36.156Z,17.31
2018-04-28T08:16:36.087Z,17.07
2018-04-28T08:17:36.055Z,17.08
2018-04-28T08:18:36.017Z,17.00
2018-04-28T08:19:35.985Z,16.85
2018-04-28T08:20:36.037Z,16.91
2018-04-28T08:21:35.920Z,17.15
2018-04-28T08:22:35.878Z,17.52
2018-04-28T08:23:35.847Z,17.51
2018-04-28T08:24:35.805Z,17.66
2018-04-28T08:25:35.806Z,17.92
2018-04-28T08:26:35.784Z,18.03
2018-04-28T08:27:35.700Z,18.27
2018-04-28T08:28:35.673Z,18.14
2018-04-28T08:29:35.624Z,18.26
2018-04-28T08:30:35.612Z,18.25
2018-04-28T08:31:35.589Z,18.32
2018-04-28T08:32:35.526Z,18.25
2018-04-28T08:33:35.493Z,17.99
2018-04-28T08:34:35.452Z,17.99
2018-04-28T08:35:35.458Z,17.63
2018-04-28T08:36:35.392Z,17.52
2018-04-28T08:37:35.355Z,17.46
2018-04-28T08:38:35.321Z,17.34
2018-04-28T08:39:35.276Z,17.51
2018-04-28T08:40:35.246Z,17.43
2018-04-28T08:41:35.243Z,17.43
2018-04-28T08:42:35.179Z,17.28
2018-04-28T08:43:35.158Z,17.12
2018-04-28T08:44:35.108Z,16.79
2018-04-28T08:45:35.154Z,16.67
2018-04-28T08:46:35.063Z,16.53
2018-04-28T08:47:35.013Z,16.52
2018-04-28T08:48:34.972Z,16.56
2018-04-28T08:49:34.949Z,16.58
2018-04-28T08:50:34.907Z,16.56
2018-04-28T08:51:34.891Z,16.53
2018-04-28T08:52:34.834Z,16.61
2018-04-28T08:53:34.790Z,16.66
2018-04-28T08:54:34.753Z,16.70
2018-04-28T08:55:34.725Z,16.78
2018-04-28T08:56:34.739Z,16.81
2018-04-28T08:57:34.672Z,16.64
2018-04-28T08:58:34.612Z,16.57
2018-04-28T08:59:34.590Z,16.42
2018-04-28T09:00:34.545Z,16.45
2018-04-28T09:01:34.501Z,16.35
2018-04-28T09:02:34.511Z,16.48
2018-04-28T09:03:34.448Z,16.48
2018-04-28T09:04:34.402Z,16.56
2018-04-28T09:05:34.370Z,16.67
2018-04-28T09:06:34.322Z,16.76
2018-04-28T09:07:34.318Z,17.01
2018-04-28T09:08:34.278Z,17.15
2018-04-28T09:09:34.215Z,17.14
2018-04-28T09:10:34.193Z,16.86
2018-04-28T09:11:34.145Z,16.70
2018-04-28T09:12:34.116Z,16.73
2018-04-28T09:13:34.108Z,16.60
2018-04-28T09:14:34.043Z,16.45
2018-04-28T09:15:34.007Z,16.43
2018-04-28T09:16:33.972Z,16.42
2018-04-28T09:17:33.939Z,16.30
2018-04-28T09:18:33.917Z,16.42
2018-04-28T09:19:33.942Z,16.43
2018-04-28T09:20:33.829Z,16.46
2018-04-28T09:21:33.783Z,16.38
2018-04-28T09:22:33.755Z,16.38
2018-04-28T09:23:33.742Z,16.39
2018-04-28T09:24:33.678Z,16.39
2018-04-28T09:25:33.662Z,16.43
2018-04-28T09:26:33.611Z,16.50
2018-04-28T09:27:33.600Z,16.46
2018-04-28T09:28:33.540Z,16.57
2018-04-28T09:29:33.498Z,16.66
2018-04-28T09:30:33.469Z,16.61
2018-04-28T09:31:33.418Z,16.66
2018-04-28T09:32:33.397Z,16.70
2018-04-28T09:33:33.383Z,16.79
2018-04-28T09:34:33.319Z,16.79
2018-04-28T09:35:33.274Z,16.89
2018-04-28T09:36:33.244Z,17.04
2018-04-28T09:37:33.208Z,17.15
2018-04-28T09:38:33.196Z,16.97
2018-04-28T09:39:33.139Z,17.01
2018-04-28T09:40:33.112Z,17.06
2018-04-28T09:41:33.067Z,17.00
2018-04-28T09:42:33.027Z,16.94
2018-04-28T09:43:33.011Z,16.97
2018-04-28T09:44:32.957Z,16.93
2018-04-28T09:45:32.919Z,16.96
2018-04-28T09:46:32.889Z,16.89
2018-04-28T09:47:32.857Z,16.76
2018-04-28T09:48:32.838Z,16.67
2018-04-28T09:49:32.782Z,16.71
2018-04-28T09:50:32.746Z,16.63
2018-04-28T09:51:32.703Z,16.53
2018-04-28T09:52:32.684Z,16.50
2018-04-28T09:53:32.668Z,16.61
2018-04-28T09:54:32.610Z,16.50
2018-04-28T09:55:32.550Z,16.50
2018-04-28T09:56:32.521Z,16.49
2018-04-28T09:57:32.494Z,16.60
2018-04-28T09:58:32.476Z,17.04
2018-04-28T09:59:32.413Z,17.89
2018-04-28T10:00:32.372Z,18.36
2018-04-28T10:01:32.352Z,18.35
2018-04-28T10:02:32.305Z,18.07
2018-04-28T10:03:32.294Z,17.86
2018-04-28T10:04:32.236Z,17.89
2018-04-28T10:05:32.203Z,17.93
2018-04-28T10:06:32.164Z,17.81
2018-04-28T10:07:32.129Z,17.84
2018-04-28T10:08:32.123Z,17.81
2018-04-28T10:09:32.061Z,17.87
2018-04-28T10:10:32.030Z,17.86
2018-04-28T10:11:31.994Z,17.64
2018-04-28T10:12:31.944Z,17.63
2018-04-28T10:13:31.942Z,17.51
2018-04-28T10:14:31.993Z,17.40
2018-04-28T10:15:31.847Z,17.31
2018-04-28T10:16:31.813Z,17.48
2018-04-28T10:17:31.785Z,17.49
2018-04-28T10:18:31.751Z,17.55
2018-04-28T10:19:31.747Z,17.59
2018-04-28T10:20:31.686Z,17.68
2018-04-28T10:21:31.640Z,17.84
2018-04-28T10:22:31.602Z,17.78
2018-04-28T10:23:31.571Z,17.84
2018-04-28T10:24:31.548Z,17.70
2018-04-28T10:25:31.497Z,17.52
2018-04-28T10:26:31.457Z,17.66
2018-04-28T10:27:31.434Z,17.48
2018-04-28T10:28:31.400Z,17.28
2018-04-28T10:29:31.382Z,17.33
2018-04-28T10:30:31.331Z,17.31
2018-04-28T10:31:31.284Z,17.30
2018-04-28T10:32:31.252Z,17.28
2018-04-28T10:33:31.218Z,17.41
2018-04-28T10:34:31.182Z,17.77
2018-04-28T10:35:31.173Z,17.84
2018-04-28T10:36:31.119Z,17.82
2018-04-28T10:37:31.083Z,17.99
2018-04-28T10:38:31.046Z,17.96
2018-04-28T10:39:31.038Z,17.82
2018-04-28T10:40:30.967Z,17.96
2018-04-28T10:41:30.931Z,17.81
2018-04-28T10:42:30.920Z,17.90
2018-04-28T10:43:30.862Z,17.78
2018-04-28T10:44:30.862Z,17.74
2018-04-28T10:45:30.791Z,17.77
2018-04-28T10:46:30.753Z,17.89
2018-04-28T10:47:30.848Z,17.92
2018-04-28T10:48:30.697Z,17.96
2018-04-28T10:49:30.654Z,17.89
2018-04-28T10:50:30.653Z,17.90
2018-04-28T10:51:30.586Z,17.74
2018-04-28T10:52:30.548Z,17.72
2018-04-28T10:53:30.508Z,17.77
2018-04-28T10:54:30.490Z,17.64
2018-04-28T10:55:30.475Z,17.63
2018-04-28T10:56:30.414Z,17.62
2018-04-28T10:57:30.378Z,17.63
2018-04-28T10:58:30.332Z,17.68
2018-04-28T10:59:30.318Z,17.62
2018-04-28T11:00:30.310Z,17.66
2018-04-28T11:01:30.266Z,17.62
2018-04-28T11:02:30.200Z,17.59
2018-04-28T11:03:30.162Z,17.66
2018-04-28T11:04:30.126Z,17.78
2018-04-28T11:05:30.115Z,17.75
2018-04-28T11:06:30.075Z,17.64
2018-04-28T11:07:30.022Z,17.62
2018-04-28T11:08:29.990Z,17.68
2018-04-28T11:09:30.326Z,17.66
2018-04-28T11:10:29.931Z,17.58
2018-04-28T11:11:30.003Z,17.46
2018-04-28T11:12:29.851Z,17.33
2018-04-28T11:13:29.806Z,17.18
2018-04-28T11:14:29.843Z,17.30
2018-04-28T11:15:29.765Z,17.21
2018-04-28T11:16:29.749Z,17.30
2018-04-28T11:17:29.680Z,17.14
2018-04-28T11:18:29.631Z,17.15
2018-04-28T11:19:29.677Z,17.16
2018-04-28T11:20:29.559Z,17.16
2018-04-28T11:21:29.517Z,17.08
2018-04-28T11:22:29.515Z,17.15
2018-04-28T11:23:29.450Z,17.08
2018-04-28T11:24:29.432Z,17.03
2018-04-28T11:25:29.469Z,17.14
2018-04-28T11:26:29.347Z,17.07
2018-04-28T11:27:29.349Z,17.08
2018-04-28T11:28:29.271Z,17.11
2018-04-28T11:29:29.233Z,17.06
2018-04-28T11:30:29.187Z,17.11
2018-04-28T11:31:29.166Z,17.04
2018-04-28T11:32:29.151Z,17.03
2018-04-28T11:33:29.084Z,17.04
2018-04-28T11:34:29.052Z,17.12
2018-04-28T11:35:29.007Z,17.00
2018-04-28T11:36:28.979Z,17.21
2018-04-28T11:37:28.960Z,17.21
2018-04-28T11:38:28.904Z,17.30
2018-04-28T11:39:28.865Z,17.79
2018-04-28T11:40:28.825Z,17.78
2018-04-28T11:41:28.809Z,18.07
2018-04-28T11:42:28.779Z,18.21
2018-04-28T11:43:28.738Z,18.51
2018-04-28T11:44:28.693Z,18.54
2018-04-28T11:45:28.646Z,18.69
2018-04-28T11:46:28.613Z,18.45
2018-04-28T11:47:28.598Z,18.33
2018-04-28T11:48:28.534Z,18.14
2018-04-28T11:49:28.504Z,18.02
2018-04-28T11:50:28.468Z,18.23
2018-04-28T11:51:28.440Z,18.23
2018-04-28T11:52:28.407Z,18.39
2018-04-28T11:53:28.397Z,18.44
2018-04-28T11:54:28.329Z,18.27
2018-04-28T11:55:28.288Z,18.45
2018-04-28T11:56:28.257Z,18.42
2018-04-28T11:57:28.225Z,18.57
2018-04-28T11:58:28.220Z,18.62
2018-04-28T11:59:28.149Z,18.78
2018-04-28T12:00:28.109Z,18.87
2018-04-28T12:01:28.089Z,18.91
2018-04-28T12:02:28.052Z,19.07
2018-04-28T12:03:28.039Z,19.04
2018-04-28T12:04:27.987Z,18.85
2018-04-28T12:05:27.939Z,18.98
2018-04-28T12:06:27.909Z,19.19
2018-04-28T12:07:27.882Z,19.28
2018-04-28T12:08:27.871Z,19.10
2018-04-28T12:09:27.810Z,19.21
2018-04-28T12:10:27.793Z,18.95
2018-04-28T12:11:27.797Z,18.84
2018-04-28T12:12:27.899Z,18.80
2018-04-28T12:13:28.228Z,18.66
2018-04-28T12:14:27.672Z,18.70
2018-04-28T12:15:28.018Z,18.73
2018-04-28T12:16:27.589Z,18.85
2018-04-28T12:17:27.559Z,18.88
2018-04-28T12:18:27.537Z,19.08
2018-04-28T12:19:27.497Z,19.07
2018-04-28T12:20:27.852Z,19.18
2018-04-28T12:21:27.492Z,19.18
2018-04-28T12:22:27.371Z,19.07
2018-04-28T12:23:27.342Z,18.75
2018-04-28T12:24:27.330Z,18.70
2018-04-28T12:25:27.261Z,18.70
2018-04-28T12:26:27.308Z,18.67
2018-04-28T12:27:27.190Z,18.85
2018-04-28T12:28:27.164Z,18.98
2018-04-28T12:29:27.156Z,19.04
2018-04-28T12:30:27.099Z,18.95
2018-04-28T12:31:27.054Z,19.07
2018-04-28T12:32:27.029Z,19.08
2018-04-28T12:33:26.998Z,19.06
2018-04-28T12:34:26.967Z,18.88
2018-04-28T12:35:26.950Z,18.70
2018-04-28T12:36:26.896Z,18.78
2018-04-28T12:37:26.850Z,18.90
2018-04-28T12:38:26.819Z,18.82
2018-04-28T12:39:26.790Z,18.84
2018-04-28T12:40:26.780Z,18.92
2018-04-28T12:41:26.720Z,18.98
2018-04-28T12:42:26.677Z,19.10
2018-04-28T12:43:26.663Z,19.21
2018-04-28T12:44:26.614Z,19.11
2018-04-28T12:45:26.610Z,19.26
2018-04-28T12:46:26.540Z,19.28
2018-04-28T12:47:26.512Z,19.18
2018-04-28T12:48:26.474Z,19.32
2018-04-28T12:49:26.445Z,19.43
2018-04-28T12:50:26.470Z,19.50
2018-04-28T12:51:26.376Z,19.31
2018-04-28T12:52:26.334Z,19.11